Time;durP1;ratioP1;P1;durP2;ratioP2;P2;SDS_P1;SDS_P2;PMS_P1;PMS_P2;Temp;Humidity;BMP_temperature;BMP_pressure;BME280_temperature;BME280_humidity;BME280_pressure;Samples;Min_cycle;Max_cycle;Signal;HPM_P1;HPM_P2
2022/12/30 00:00:45;;;;;;;24.05;4.45;;;;;;;;;;5097546;28;20809;-68
2022/12/30 00:03:11;;;;;;;21.45;3.38;;;;;;;;;;5096404;28;20394;-68
2022/12/30 00:05:37;;;;;;;29.08;4.15;;;;;;;;;;5097926;28;20059;-68
2022/12/30 00:08:04;;;;;;;30.13;3.78;;;;;;;;;;5078503;28;20043;-68
2022/12/30 00:10:30;;;;;;;30.20;4.65;;;;;;;;;;5077963;28;20059;-68
2022/12/30 00:35:00;;;;;;;33.03;3.80;;;;;;;;;;5097276;28;20055;-68
2022/12/30 00:37:26;;;;;;;29.13;5.18;;;;;;;;;;5097887;28;20455;-68
2022/12/30 00:39:52;;;;;;;23.50;4.82;;;;;;;;;;5098160;28;20044;-68
2022/12/30 00:45:03;;;;;;;26.58;3.35;;;;;;;;;;5077954;28;20055;-68
2022/12/30 00:47:30;;;;;;;27.00;3.65;;;;;;;;;;5097016;28;20109;-68
2022/12/30 00:58:10;;;;;;;27.17;3.15;;;;;;;;;;5072329;28;20073;-68
2022/12/30 01:00:36;;;;;;;26.33;4.10;;;;;;;;;;5065013;28;20043;-68
2022/12/30 01:03:03;;;;;;;29.45;4.05;;;;;;;;;;5077635;28;20442;-68
2022/12/30 01:05:29;;;;;;;25.77;3.88;;;;;;;;;;5083365;28;20074;-68
2022/12/30 01:07:55;;;;;;;29.20;4.03;;;;;;;;;;5093854;28;20043;-68
2022/12/30 01:10:21;;;;;;;29.50;4.35;;;;;;;;;;5097052;28;20122;-68
2022/12/30 01:12:47;;;;;;;20.10;3.85;;;;;;;;;;5074298;28;20174;-68
2022/12/30 01:15:14;;;;;;;23.27;3.47;;;;;;;;;;5098840;28;20047;-68
2022/12/30 01:17:40;;;;;;;29.23;4.05;;;;;;;;;;5097107;28;20052;-68
2022/12/30 01:20:07;;;;;;;24.27;3.55;;;;;;;;;;5078420;28;20051;-68
2022/12/30 01:22:33;;;;;;;26.95;3.75;;;;;;;;;;5078737;28;20052;-68
2022/12/30 01:24:59;;;;;;;18.67;3.50;;;;;;;;;;5075804;28;20059;-68
2022/12/30 01:27:25;;;;;;;27.60;4.05;;;;;;;;;;5078358;28;20138;-68
2022/12/30 01:29:52;;;;;;;25.13;3.72;;;;;;;;;;5077955;28;20161;-68
2022/12/30 01:32:20;;;;;;;32.45;4.28;;;;;;;;;;5074691;28;20510;-68
2022/12/30 01:34:46;;;;;;;21.95;3.22;;;;;;;;;;5096522;28;20036;-68
2022/12/30 01:37:12;;;;;;;20.50;2.75;;;;;;;;;;5099073;28;20043;-68
2022/12/30 01:39:39;;;;;;;24.63;3.45;;;;;;;;;;5098259;28;20054;-68
2022/12/30 01:42:16;;;;;;;23.42;4.00;;;;;;;;;;5096211;28;20043;-68
2022/12/30 01:44:46;;;;;;;26.75;4.55;;;;;;;;;;5094819;28;20063;-68
2022/12/30 01:47:15;;;;;;;28.38;4.28;;;;;;;;;;5097288;28;20110;-68
2022/12/30 01:49:43;;;;;;;14.35;3.35;;;;;;;;;;5072942;28;20506;-68
2022/12/30 01:52:09;;;;;;;28.73;3.72;;;;;;;;;;5074676;28;20096;-68
2022/12/30 01:54:36;;;;;;;29.20;6.03;;;;;;;;;;5095019;28;20044;-68
2022/12/30 01:57:05;;;;;;;23.10;3.92;;;;;;;;;;5093834;28;20097;-68
2022/12/30 01:59:31;;;;;;;25.75;3.95;;;;;;;;;;5073966;28;20063;-68
2022/12/30 02:01:58;;;;;;;24.77;4.05;;;;;;;;;;5095007;28;20089;-68
2022/12/30 02:04:25;;;;;;;24.42;4.43;;;;;;;;;;5094425;28;20399;-68
2022/12/30 02:06:57;;;;;;;22.67;3.70;;;;;;;;;;5064603;28;20043;-68
2022/12/30 02:09:23;;;;;;;27.05;3.85;;;;;;;;;;5078446;28;20135;-68
2022/12/30 02:11:49;;;;;;;25.58;3.97;;;;;;;;;;5094529;28;20055;-68
2022/12/30 02:14:16;;;;;;;24.63;4.95;;;;;;;;;;5094075;28;20252;-68
2022/12/30 02:16:49;;;;;;;21.65;3.35;;;;;;;;;;5093984;28;20050;-68
2022/12/30 02:19:16;;;;;;;37.35;5.80;;;;;;;;;;5095902;28;20473;-68
2022/12/30 02:21:49;;;;;;;24.08;3.55;;;;;;;;;;5093274;28;20039;-68
2022/12/30 02:24:33;;;;;;;23.55;4.00;;;;;;;;;;5095208;28;20056;-68
2022/12/30 02:27:12;;;;;;;26.77;3.65;;;;;;;;;;5090049;28;20500;-68
2022/12/30 02:29:54;;;;;;;20.38;3.83;;;;;;;;;;5073958;28;20044;-68
2022/12/30 02:32:25;;;;;;;21.48;3.53;;;;;;;;;;5077658;28;20040;-68
2022/12/30 02:35:01;;;;;;;26.95;4.10;;;;;;;;;;5094467;28;20051;-68
2022/12/30 02:37:31;;;;;;;36.15;4.53;;;;;;;;;;5099101;28;20070;-69
2022/12/30 02:40:00;;;;;;;24.70;3.88;;;;;;;;;;5100542;28;20056;-68
2022/12/30 02:45:37;;;;;;;24.75;4.00;;;;;;;;;;5079974;28;20051;-68
2022/12/30 02:48:22;;;;;;;22.70;4.10;;;;;;;;;;5100638;28;20112;-68
2022/12/30 02:53:35;;;;;;;32.03;3.97;;;;;;;;;;5102970;28;20429;-68
2022/12/30 02:56:01;;;;;;;23.63;4.68;;;;;;;;;;5080598;28;20044;-68
2022/12/30 02:58:29;;;;;;;30.45;4.57;;;;;;;;;;5082531;28;20114;-68
2022/12/30 03:04:02;;;;;;;28.30;5.25;;;;;;;;;;5099483;28;20459;-68
2022/12/30 03:06:28;;;;;;;30.85;4.82;;;;;;;;;;5081529;28;20043;-69
2022/12/30 03:09:02;;;;;;;21.35;3.30;;;;;;;;;;5101474;28;20050;-68
2022/12/30 03:11:33;;;;;;;31.88;4.53;;;;;;;;;;5064844;28;20398;-68
2022/12/30 03:14:04;;;;;;;27.08;3.95;;;;;;;;;;5080169;28;20120;-68
2022/12/30 03:16:35;;;;;;;29.40;5.03;;;;;;;;;;5080382;28;20112;-68
2022/12/30 03:19:03;;;;;;;35.83;5.00;;;;;;;;;;5083640;28;20046;-68
2022/12/30 03:21:32;;;;;;;35.92;5.82;;;;;;;;;;5077465;28;20040;-68
2022/12/30 03:27:03;;;;;;;36.60;4.45;;;;;;;;;;5081997;28;20062;-68
2022/12/30 03:29:32;;;;;;;39.03;5.25;;;;;;;;;;5098605;28;20509;-69
2022/12/30 03:31:58;;;;;;;24.42;6.25;;;;;;;;;;5100712;28;20048;-68
2022/12/30 03:34:25;;;;;;;40.53;4.88;;;;;;;;;;5081637;28;20051;-68
2022/12/30 03:36:55;;;;;;;30.42;4.63;;;;;;;;;;5080400;28;20077;-68
2022/12/30 03:39:26;;;;;;;22.75;5.15;;;;;;;;;;5080872;28;20040;-68
2022/12/30 03:41:53;;;;;;;35.80;6.35;;;;;;;;;;5060848;28;20049;-68
2022/12/30 03:44:19;;;;;;;27.67;4.65;;;;;;;;;;5095628;28;20048;-68
2022/12/30 03:46:46;;;;;;;28.33;4.75;;;;;;;;;;5099445;28;20051;-68
2022/12/30 03:49:13;;;;;;;41.05;5.25;;;;;;;;;;5090916;28;20047;-68
2022/12/30 03:51:39;;;;;;;28.67;4.72;;;;;;;;;;5095662;28;20044;-68
2022/12/30 03:54:05;;;;;;;33.65;4.88;;;;;;;;;;5079971;28;20178;-68
2022/12/30 03:56:31;;;;;;;34.17;4.57;;;;;;;;;;5098564;28;20051;-68
2022/12/30 03:58:57;;;;;;;32.85;4.72;;;;;;;;;;5095009;28;20046;-68
2022/12/30 04:01:24;;;;;;;25.67;6.05;;;;;;;;;;5096265;28;20130;-68
2022/12/30 04:03:50;;;;;;;34.40;6.05;;;;;;;;;;5098694;28;20048;-68
2022/12/30 04:06:16;;;;;;;28.35;5.30;;;;;;;;;;5096785;28;20142;-68
2022/12/30 04:08:42;;;;;;;27.65;5.90;;;;;;;;;;5094966;28;20495;-68
2022/12/30 04:11:08;;;;;;;50.78;7.97;;;;;;;;;;5097168;28;20047;-68
2022/12/30 04:13:34;;;;;;;35.35;6.07;;;;;;;;;;5075910;28;20505;-68
2022/12/30 04:16:00;;;;;;;33.97;6.43;;;;;;;;;;5096224;28;20047;-68
2022/12/30 04:18:27;;;;;;;31.02;5.88;;;;;;;;;;5081608;28;20039;-68
2022/12/30 04:20:53;;;;;;;34.90;5.72;;;;;;;;;;5098852;28;20637;-68
2022/12/30 04:23:19;;;;;;;36.17;6.93;;;;;;;;;;5095791;28;20048;-68
2022/12/30 04:25:45;;;;;;;35.08;6.57;;;;;;;;;;5098027;28;20047;-68
2022/12/30 04:28:11;;;;;;;32.35;9.52;;;;;;;;;;5096578;28;20036;-68
2022/12/30 04:30:38;;;;;;;27.13;6.25;;;;;;;;;;5077319;28;20057;-68
2022/12/30 04:33:04;;;;;;;34.63;8.15;;;;;;;;;;5099002;28;20094;-68
2022/12/30 04:35:30;;;;;;;33.25;7.95;;;;;;;;;;5096075;28;20067;-68
2022/12/30 04:37:56;;;;;;;35.65;7.10;;;;;;;;;;5097702;28;20483;-68
2022/12/30 04:40:22;;;;;;;31.45;6.60;;;;;;;;;;5099117;28;20505;-68
2022/12/30 04:42:49;;;;;;;31.83;5.90;;;;;;;;;;5092692;28;20371;-68
2022/12/30 04:45:15;;;;;;;26.77;5.50;;;;;;;;;;5095104;28;20075;-68
2022/12/30 04:47:41;;;;;;;33.95;6.03;;;;;;;;;;5098025;28;20067;-68
2022/12/30 04:50:07;;;;;;;26.95;6.20;;;;;;;;;;5076667;28;20490;-68
2022/12/30 04:52:34;;;;;;;31.23;6.72;;;;;;;;;;5097660;28;20112;-68
2022/12/30 04:55:00;;;;;;;39.92;7.15;;;;;;;;;;5093174;28;20061;-68
2022/12/30 04:57:26;;;;;;;25.88;5.97;;;;;;;;;;5096454;28;20092;-68
2022/12/30 04:59:52;;;;;;;20.70;5.35;;;;;;;;;;5096625;28;20125;-68
2022/12/30 05:02:18;;;;;;;23.98;6.07;;;;;;;;;;5079202;28;20061;-68
2022/12/30 05:04:45;;;;;;;32.63;5.60;;;;;;;;;;5099947;28;20047;-68
2022/12/30 05:07:11;;;;;;;29.08;6.32;;;;;;;;;;5078610;28;20076;-68
2022/12/30 05:09:37;;;;;;;26.00;6.40;;;;;;;;;;5097342;28;20115;-68
2022/12/30 05:12:03;;;;;;;29.42;5.55;;;;;;;;;;5097877;28;20429;-68
2022/12/30 05:14:29;;;;;;;28.83;6.13;;;;;;;;;;5096921;28;20432;-68
2022/12/30 05:16:55;;;;;;;32.45;6.18;;;;;;;;;;5098048;28;20379;-68
2022/12/30 05:19:22;;;;;;;26.00;6.25;;;;;;;;;;5095052;28;20449;-68
2022/12/30 05:21:48;;;;;;;25.48;5.65;;;;;;;;;;5078282;28;20039;-68
2022/12/30 05:26:58;;;;;;;34.22;6.95;;;;;;;;;;5095754;28;20112;-68
2022/12/30 05:29:24;;;;;;;37.03;6.78;;;;;;;;;;5083850;28;20044;-68
2022/12/30 05:31:51;;;;;;;23.13;6.32;;;;;;;;;;5097211;28;20147;-68
2022/12/30 05:34:17;;;;;;;18.25;4.70;;;;;;;;;;5077544;28;20197;-68
2022/12/30 05:36:43;;;;;;;25.73;5.25;;;;;;;;;;5076305;28;20429;-68
2022/12/30 05:39:11;;;;;;;21.83;4.25;;;;;;;;;;5097100;28;20495;-68
2022/12/30 05:41:38;;;;;;;22.20;5.63;;;;;;;;;;5095803;28;20159;-68
2022/12/30 05:44:04;;;;;;;18.45;4.05;;;;;;;;;;5071548;28;20194;-68
2022/12/30 05:46:30;;;;;;;26.45;4.97;;;;;;;;;;5068711;28;20092;-68
2022/12/30 05:48:57;;;;;;;31.80;5.30;;;;;;;;;;5075635;28;20126;-68
2022/12/30 05:51:23;;;;;;;20.27;4.40;;;;;;;;;;5072719;28;20043;-68
2022/12/30 05:53:49;;;;;;;26.50;4.95;;;;;;;;;;5075072;28;20036;-68
2022/12/30 05:56:16;;;;;;;20.02;4.65;;;;;;;;;;5075371;28;20047;-68
2022/12/30 05:58:42;;;;;;;26.35;5.00;;;;;;;;;;5074117;28;20118;-68
2022/12/30 06:01:08;;;;;;;32.03;5.30;;;;;;;;;;5074944;28;20123;-68
2022/12/30 06:03:35;;;;;;;26.30;5.45;;;;;;;;;;5072402;28;20036;-68
2022/12/30 06:06:03;;;;;;;22.02;4.97;;;;;;;;;;5074282;28;20421;-68
2022/12/30 06:08:29;;;;;;;18.95;4.82;;;;;;;;;;5074848;28;20074;-68
2022/12/30 06:10:56;;;;;;;19.27;4.57;;;;;;;;;;5077393;28;20056;-68
2022/12/30 06:13:22;;;;;;;19.80;4.15;;;;;;;;;;5082917;28;20125;-68
2022/12/30 06:15:48;;;;;;;17.77;4.47;;;;;;;;;;5080815;28;20058;-68
2022/12/30 06:18:14;;;;;;;27.70;5.25;;;;;;;;;;5082192;28;20048;-68
2022/12/30 06:20:40;;;;;;;24.10;5.13;;;;;;;;;;5080720;28;20119;-68
2022/12/30 06:23:07;;;;;;;28.95;5.80;;;;;;;;;;5079761;28;20040;-68
2022/12/30 06:25:33;;;;;;;22.02;5.00;;;;;;;;;;5080386;28;20040;-69
2022/12/30 06:27:59;;;;;;;18.67;4.40;;;;;;;;;;5079915;28;20454;-68
2022/12/30 06:30:25;;;;;;;22.77;5.07;;;;;;;;;;5084483;28;20396;-68
2022/12/30 06:32:54;;;;;;;23.92;5.07;;;;;;;;;;5084466;28;20476;-68
2022/12/30 06:35:20;;;;;;;22.33;4.82;;;;;;;;;;5081535;28;20043;-68
2022/12/30 06:37:46;;;;;;;20.13;4.88;;;;;;;;;;5081499;28;20061;-68
2022/12/30 06:40:12;;;;;;;20.95;5.90;;;;;;;;;;5084054;28;20365;-68
2022/12/30 06:42:38;;;;;;;27.25;4.78;;;;;;;;;;5084196;28;20076;-68
2022/12/30 06:45:05;;;;;;;21.42;5.93;;;;;;;;;;5105694;28;20463;-68
2022/12/30 06:47:31;;;;;;;26.15;6.20;;;;;;;;;;5101940;28;20040;-68
2022/12/30 06:49:57;;;;;;;23.40;5.60;;;;;;;;;;5098060;28;20051;-69
2022/12/30 06:52:24;;;;;;;30.10;6.30;;;;;;;;;;5079897;28;20043;-69
2022/12/30 06:54:50;;;;;;;19.77;5.10;;;;;;;;;;5083426;28;20039;-69
2022/12/30 06:57:16;;;;;;;20.48;5.40;;;;;;;;;;5102689;28;21429;-68
2022/12/30 06:59:42;;;;;;;23.38;5.00;;;;;;;;;;5104474;28;20054;-68
2022/12/30 07:02:11;;;;;;;23.95;6.40;;;;;;;;;;5082802;28;20040;-68
2022/12/30 07:04:37;;;;;;;20.75;5.43;;;;;;;;;;5101958;28;20048;-69
2022/12/30 07:07:03;;;;;;;20.17;6.25;;;;;;;;;;5101503;28;20047;-68
2022/12/30 07:09:29;;;;;;;26.63;6.43;;;;;;;;;;5083298;28;20574;-68
2022/12/30 07:11:55;;;;;;;24.52;6.30;;;;;;;;;;5083317;28;20043;-66
2022/12/30 07:14:21;;;;;;;21.10;5.32;;;;;;;;;;5101536;28;20391;-66
2022/12/30 07:16:48;;;;;;;22.58;6.07;;;;;;;;;;5100062;28;20055;-66
2022/12/30 07:19:14;;;;;;;28.42;5.78;;;;;;;;;;5084451;28;20027;-67
2022/12/30 07:21:40;;;;;;;21.23;6.93;;;;;;;;;;5102495;28;20043;-67
2022/12/30 07:24:07;;;;;;;22.45;5.53;;;;;;;;;;5098876;28;20482;-67
2022/12/30 07:26:33;;;;;;;25.92;6.18;;;;;;;;;;5103627;28;21445;-67
2022/12/30 07:28:59;;;;;;;29.65;5.47;;;;;;;;;;5102133;28;20097;-67
2022/12/30 07:31:25;;;;;;;28.83;6.03;;;;;;;;;;5084893;28;20137;-67
2022/12/30 07:33:51;;;;;;;21.30;4.93;;;;;;;;;;5101203;28;20039;-67
2022/12/30 07:36:18;;;;;;;26.88;5.15;;;;;;;;;;5099564;28;20043;-66
2022/12/30 07:38:44;;;;;;;30.05;5.07;;;;;;;;;;5101188;28;20078;-67
2022/12/30 07:41:11;;;;;;;19.70;4.80;;;;;;;;;;5103486;28;20055;-66
2022/12/30 07:43:38;;;;;;;20.27;4.70;;;;;;;;;;5100870;28;20059;-67
2022/12/30 07:46:05;;;;;;;16.33;4.50;;;;;;;;;;5102566;28;20051;-67
2022/12/30 07:48:32;;;;;;;16.77;3.88;;;;;;;;;;5102169;28;20081;-67
2022/12/30 07:50:58;;;;;;;20.38;4.13;;;;;;;;;;5102527;28;20043;-66
2022/12/30 07:53:24;;;;;;;23.73;5.40;;;;;;;;;;5103803;28;20126;-67
2022/12/30 07:55:50;;;;;;;20.23;4.28;;;;;;;;;;5102005;28;20402;-66
2022/12/30 07:58:16;;;;;;;19.15;4.47;;;;;;;;;;5102540;28;20036;-67
2022/12/30 08:00:42;;;;;;;18.92;3.92;;;;;;;;;;5103221;28;20044;-66
2022/12/30 08:03:09;;;;;;;18.05;4.15;;;;;;;;;;5100509;28;20078;-66
2022/12/30 08:05:35;;;;;;;27.95;5.75;;;;;;;;;;5098459;28;20104;-66
2022/12/30 08:08:01;;;;;;;20.67;3.72;;;;;;;;;;5082590;28;20040;-66
2022/12/30 08:10:27;;;;;;;23.77;4.45;;;;;;;;;;5084757;28;20480;-66
2022/12/30 08:12:53;;;;;;;23.17;3.97;;;;;;;;;;5082949;28;20170;-67
2022/12/30 08:15:20;;;;;;;17.52;3.80;;;;;;;;;;5086838;28;20054;-67
2022/12/30 08:17:46;;;;;;;19.23;3.20;;;;;;;;;;5105189;28;20528;-67
2022/12/30 08:20:12;;;;;;;17.85;4.28;;;;;;;;;;5101531;28;21786;-67
2022/12/30 08:22:40;;;;;;;19.50;4.10;;;;;;;;;;5105565;28;20137;-68
2022/12/30 08:25:06;;;;;;;25.27;4.32;;;;;;;;;;5105803;28;20154;-67
2022/12/30 08:27:33;;;;;;;23.67;4.32;;;;;;;;;;5103650;28;20151;-66
2022/12/30 08:29:59;;;;;;;14.85;3.65;;;;;;;;;;5104742;28;20043;-67
2022/12/30 08:32:25;;;;;;;18.98;4.10;;;;;;;;;;5106293;28;20050;-67
2022/12/30 08:34:51;;;;;;;19.08;4.03;;;;;;;;;;5106195;28;20040;-67
2022/12/30 08:37:17;;;;;;;22.45;4.03;;;;;;;;;;5085790;28;20437;-68
2022/12/30 08:39:43;;;;;;;21.52;4.82;;;;;;;;;;5104611;28;20044;-68
2022/12/30 08:42:10;;;;;;;25.80;3.67;;;;;;;;;;5084320;28;20055;-67
2022/12/30 08:44:36;;;;;;;25.00;4.38;;;;;;;;;;5107167;28;20090;-67
2022/12/30 08:47:02;;;;;;;19.92;4.22;;;;;;;;;;5102051;28;20108;-67
2022/12/30 08:49:28;;;;;;;24.85;4.18;;;;;;;;;;5103748;28;20054;-67
2022/12/30 08:51:54;;;;;;;21.85;4.15;;;;;;;;;;5102205;28;20043;-75
2022/12/30 08:54:21;;;;;;;23.10;4.53;;;;;;;;;;5083837;28;20093;-68
2022/12/30 08:56:48;;;;;;;27.20;5.00;;;;;;;;;;5086142;28;20051;-68
2022/12/30 08:59:14;;;;;;;17.35;3.78;;;;;;;;;;5090016;28;20046;-68
2022/12/30 09:01:41;;;;;;;27.20;5.47;;;;;;;;;;5101690;28;20061;-68
2022/12/30 09:04:08;;;;;;;17.73;4.18;;;;;;;;;;5103545;28;20035;-67
2022/12/30 09:06:35;;;;;;;14.73;3.63;;;;;;;;;;5100390;28;20039;-68
2022/12/30 09:09:02;;;;;;;16.27;4.18;;;;;;;;;;5101069;28;20050;-68
2022/12/30 09:11:29;;;;;;;13.40;3.92;;;;;;;;;;5079638;28;20051;-68
2022/12/30 09:13:56;;;;;;;21.63;4.32;;;;;;;;;;5102091;28;20044;-68
2022/12/30 09:16:23;;;;;;;19.27;3.88;;;;;;;;;;5081650;28;20048;-68
2022/12/30 09:18:49;;;;;;;24.50;4.18;;;;;;;;;;5098392;28;20048;-68
2022/12/30 09:21:16;;;;;;;23.75;4.03;;;;;;;;;;5103183;28;20042;-68
2022/12/30 09:23:42;;;;;;;25.10;4.57;;;;;;;;;;5100979;28;20387;-67
2022/12/30 09:26:09;;;;;;;21.35;3.70;;;;;;;;;;5102122;28;20077;-67
2022/12/30 09:28:36;;;;;;;24.67;4.68;;;;;;;;;;5106738;28;20043;-67
2022/12/30 09:31:03;;;;;;;22.63;4.45;;;;;;;;;;5068528;28;20078;-67
2022/12/30 09:33:29;;;;;;;29.50;3.40;;;;;;;;;;5104040;28;20482;-67
2022/12/30 09:35:55;;;;;;;16.60;3.67;;;;;;;;;;5085394;28;20082;-67
2022/12/30 09:38:21;;;;;;;18.40;5.10;;;;;;;;;;5102044;28;20440;-67
2022/12/30 09:40:57;;;;;;;18.83;3.53;;;;;;;;;;5084461;28;20078;-67
2022/12/30 09:43:29;;;;;;;18.08;4.10;;;;;;;;;;5078443;28;20139;-67
2022/12/30 09:46:09;;;;;;;25.52;4.70;;;;;;;;;;5079024;28;20112;-67
2022/12/30 09:48:39;;;;;;;15.32;3.95;;;;;;;;;;5102029;28;20146;-67
2022/12/30 09:51:07;;;;;;;21.88;4.43;;;;;;;;;;5083499;28;20039;-68
2022/12/30 09:53:44;;;;;;;15.95;4.28;;;;;;;;;;5101344;28;20108;-67
2022/12/30 09:56:13;;;;;;;20.42;3.92;;;;;;;;;;5102216;28;20046;-68
2022/12/30 09:58:39;;;;;;;18.10;4.05;;;;;;;;;;5102676;28;20043;-67
2022/12/30 10:01:27;;;;;;;18.95;4.25;;;;;;;;;;5100153;28;20082;-67
2022/12/30 10:03:56;;;;;;;19.00;3.55;;;;;;;;;;5102850;28;20046;-67
2022/12/30 10:06:24;;;;;;;19.60;4.18;;;;;;;;;;5099524;28;20471;-67
2022/12/30 10:09:09;;;;;;;14.80;3.65;;;;;;;;;;5100721;28;20425;-67
2022/12/30 10:11:36;;;;;;;12.70;3.42;;;;;;;;;;5101466;28;20039;-67
2022/12/30 10:14:16;;;;;;;19.40;4.25;;;;;;;;;;5082974;28;20051;-67
2022/12/30 10:17:05;;;;;;;19.70;3.42;;;;;;;;;;5081459;28;20043;-67
2022/12/30 10:19:39;;;;;;;18.20;3.35;;;;;;;;;;5099634;28;20039;-67
2022/12/30 10:22:05;;;;;;;17.90;4.10;;;;;;;;;;5069694;28;20096;-67
2022/12/30 10:24:31;;;;;;;16.95;3.63;;;;;;;;;;5102515;28;20131;-67
2022/12/30 10:26:58;;;;;;;14.43;3.95;;;;;;;;;;5102428;28;20047;-79
2022/12/30 10:29:30;;;;;;;16.60;3.72;;;;;;;;;;5083714;28;20171;-67
2022/12/30 10:31:57;;;;;;;14.38;3.47;;;;;;;;;;5104554;28;20040;-67
2022/12/30 10:34:25;;;;;;;10.88;3.83;;;;;;;;;;5098612;28;20047;-65
2022/12/30 10:37:03;;;;;;;20.52;4.20;;;;;;;;;;5099370;28;20467;-65
2022/12/30 10:39:32;;;;;;;14.15;3.53;;;;;;;;;;5098455;28;20119;-65
2022/12/30 10:42:12;;;;;;;15.38;3.47;;;;;;;;;;5102254;28;20058;-65
2022/12/30 10:44:38;;;;;;;12.38;3.58;;;;;;;;;;5098742;28;20066;-65
2022/12/30 10:47:05;;;;;;;12.38;4.22;;;;;;;;;;5099732;28;20101;-66
2022/12/30 10:49:43;;;;;;;13.65;3.35;;;;;;;;;;5099883;28;20406;-66
2022/12/30 10:52:11;;;;;;;11.82;3.10;;;;;;;;;;5083092;28;20039;-66
2022/12/30 10:54:37;;;;;;;17.35;4.38;;;;;;;;;;5100259;28;20036;-66
2022/12/30 10:57:03;;;;;;;17.38;3.15;;;;;;;;;;5102286;28;20149;-66
2022/12/30 10:59:34;;;;;;;14.65;4.88;;;;;;;;;;5103098;28;20123;-66
2022/12/30 11:02:03;;;;;;;15.77;3.63;;;;;;;;;;5104860;28;20058;-66
2022/12/30 11:04:34;;;;;;;21.45;4.70;;;;;;;;;;5071355;28;20043;-65
2022/12/30 11:07:01;;;;;;;17.50;4.13;;;;;;;;;;5102023;28;20075;-68
2022/12/30 11:09:27;;;;;;;16.40;4.28;;;;;;;;;;5101574;28;20105;-65
2022/12/30 11:14:42;;;;;;;10.70;4.00;;;;;;;;;;5106188;28;20047;-65
2022/12/30 11:17:16;;;;;;;10.68;3.38;;;;;;;;;;5106506;28;21750;-65
2022/12/30 11:19:43;;;;;;;15.27;3.33;;;;;;;;;;5084746;28;20051;-66
2022/12/30 11:22:11;;;;;;;16.15;3.90;;;;;;;;;;5104530;28;20177;-65
2022/12/30 11:24:37;;;;;;;15.60;3.53;;;;;;;;;;5105105;28;20040;-65
2022/12/30 11:27:04;;;;;;;14.02;3.00;;;;;;;;;;5105481;28;20531;-66
2022/12/30 11:29:33;;;;;;;12.45;3.30;;;;;;;;;;5102512;28;20089;-65
2022/12/30 11:32:00;;;;;;;14.32;3.83;;;;;;;;;;5104152;28;20050;-66
2022/12/30 11:34:30;;;;;;;10.55;3.05;;;;;;;;;;5107025;28;20387;-65
2022/12/30 11:36:57;;;;;;;10.15;2.45;;;;;;;;;;5085161;28;20490;-65
2022/12/30 11:39:23;;;;;;;13.38;3.17;;;;;;;;;;5087795;28;20580;-66
2022/12/30 11:41:52;;;;;;;12.57;3.42;;;;;;;;;;5087291;28;20498;-66
2022/12/30 11:44:20;;;;;;;10.57;2.60;;;;;;;;;;5085014;28;20055;-66
2022/12/30 11:46:51;;;;;;;14.40;3.38;;;;;;;;;;5103349;28;20055;-66
2022/12/30 11:49:20;;;;;;;11.95;3.00;;;;;;;;;;5086008;28;20043;-66
2022/12/30 11:51:48;;;;;;;8.38;2.67;;;;;;;;;;5099135;28;20544;-66
2022/12/30 11:54:16;;;;;;;13.27;2.58;;;;;;;;;;5103388;28;20153;-66
2022/12/30 11:57:00;;;;;;;12.70;2.60;;;;;;;;;;5104716;28;20172;-66
2022/12/30 11:59:29;;;;;;;10.65;2.92;;;;;;;;;;5085311;28;20513;-66
2022/12/30 12:01:57;;;;;;;8.23;2.28;;;;;;;;;;5102308;28;20535;-66
2022/12/30 12:04:32;;;;;;;12.57;3.03;;;;;;;;;;5102551;28;20042;-66
2022/12/30 12:06:59;;;;;;;12.80;2.95;;;;;;;;;;5086581;28;20585;-66
2022/12/30 12:09:29;;;;;;;11.77;2.67;;;;;;;;;;5087159;28;20093;-66
2022/12/30 12:11:56;;;;;;;15.80;2.92;;;;;;;;;;5103345;28;20043;-66
2022/12/30 12:14:27;;;;;;;13.95;2.85;;;;;;;;;;5103997;28;20248;-66
2022/12/30 12:16:58;;;;;;;7.40;2.03;;;;;;;;;;5103689;28;20044;-66
2022/12/30 12:19:29;;;;;;;14.57;2.25;;;;;;;;;;5099912;28;20035;-66
2022/12/30 12:21:59;;;;;;;16.27;2.40;;;;;;;;;;5100559;28;20047;-65
2022/12/30 12:24:33;;;;;;;10.60;2.15;;;;;;;;;;5101215;28;20042;-66
2022/12/30 12:26:59;;;;;;;;;;;;;;;;;;5099189;28;20063;-67
2022/12/30 12:29:25;;;;;;;10.55;1.98;;;;;;;;;;5097860;28;20018;-65
2022/12/30 12:32:20;;;;;;;12.20;2.15;;;;;;;;;;5098518;28;20044;-65
2022/12/30 12:34:48;;;;;;;10.38;2.80;;;;;;;;;;5100950;28;20043;-65
2022/12/30 12:37:21;;;;;;;9.82;3.03;;;;;;;;;;5102404;28;20047;-67
2022/12/30 12:40:00;;;;;;;12.85;2.38;;;;;;;;;;5082727;28;20056;-66
2022/12/30 12:42:30;;;;;;;11.27;2.85;;;;;;;;;;5105589;28;20043;-65
2022/12/30 12:45:05;;;;;;;9.23;1.65;;;;;;;;;;5101229;28;20055;-66
2022/12/30 12:47:51;;;;;;;8.75;1.95;;;;;;;;;;5102031;28;20756;-66
2022/12/30 12:50:23;;;;;;;9.52;2.20;;;;;;;;;;5098378;28;20509;-66
2022/12/30 12:52:53;;;;;;;7.82;2.80;;;;;;;;;;5087231;28;20143;-66
2022/12/30 12:55:30;;;;;;;8.50;1.65;;;;;;;;;;5107135;28;20120;-66
2022/12/30 12:58:08;;;;;;;8.27;1.75;;;;;;;;;;5104915;28;20092;-67
2022/12/30 13:00:43;;;;;;;7.32;2.00;;;;;;;;;;5102023;28;20051;-66
2022/12/30 13:03:25;;;;;;;9.45;1.80;;;;;;;;;;5107778;28;20040;-66
2022/12/30 13:06:02;;;;;;;7.65;1.90;;;;;;;;;;5089742;28;20036;-66
2022/12/30 13:08:37;;;;;;;12.25;2.17;;;;;;;;;;5105222;28;20116;-66
2022/12/30 13:11:09;;;;;;;10.18;2.13;;;;;;;;;;5082745;28;20055;-67
2022/12/30 13:13:59;;;;;;;8.02;2.38;;;;;;;;;;5105752;28;20102;-66
2022/12/30 13:16:34;;;;;;;8.75;2.38;;;;;;;;;;5103042;28;20040;-66
2022/12/30 13:19:01;;;;;;;9.88;1.85;;;;;;;;;;5104205;28;20035;-67
2022/12/30 13:21:27;;;;;;;9.13;2.08;;;;;;;;;;5102267;28;20147;-66
2022/12/30 13:23:56;;;;;;;10.85;1.95;;;;;;;;;;5083547;28;20042;-66
2022/12/30 13:26:23;;;;;;;7.95;2.15;;;;;;;;;;5102026;28;20044;-66
2022/12/30 13:28:52;;;;;;;7.90;1.95;;;;;;;;;;5101493;28;20048;-67
2022/12/30 13:31:21;;;;;;;10.43;2.00;;;;;;;;;;5102575;28;20040;-67
2022/12/30 13:33:51;;;;;;;10.43;2.13;;;;;;;;;;5104013;28;20104;-67
2022/12/30 13:36:21;;;;;;;10.38;2.25;;;;;;;;;;5083926;28;20471;-67
2022/12/30 13:38:55;;;;;;;8.93;1.90;;;;;;;;;;5101532;28;20344;-66
2022/12/30 13:41:21;;;;;;;11.57;2.30;;;;;;;;;;5085592;28;20691;-67
2022/12/30 13:43:50;;;;;;;19.02;2.22;;;;;;;;;;5084664;28;20518;-66
2022/12/30 13:46:17;;;;;;;7.40;2.08;;;;;;;;;;5081205;28;20092;-66
2022/12/30 13:48:50;;;;;;;7.78;2.00;;;;;;;;;;5101383;28;20075;-66
2022/12/30 13:51:19;;;;;;;8.30;1.70;;;;;;;;;;5080917;28;20109;-67
2022/12/30 13:53:47;;;;;;;5.97;1.67;;;;;;;;;;5083071;28;20108;-66
2022/12/30 13:56:19;;;;;;;8.38;1.70;;;;;;;;;;5083311;28;20130;-66
2022/12/30 13:58:47;;;;;;;9.40;2.28;;;;;;;;;;5079527;28;20104;-66
2022/12/30 14:01:20;;;;;;;7.35;2.17;;;;;;;;;;5081916;28;20074;-66
2022/12/30 14:03:47;;;;;;;9.50;1.70;;;;;;;;;;5100160;28;20043;-66
2022/12/30 14:06:21;;;;;;;9.90;1.70;;;;;;;;;;5085414;28;20108;-67
2022/12/30 14:08:49;;;;;;;7.07;2.10;;;;;;;;;;5106028;28;20557;-66
2022/12/30 14:11:16;;;;;;;8.88;2.10;;;;;;;;;;5108670;28;20089;-66
2022/12/30 14:13:44;;;;;;;6.57;1.77;;;;;;;;;;5111224;28;20399;-66
2022/12/30 14:16:11;;;;;;;7.55;1.58;;;;;;;;;;5106275;28;20524;-67
2022/12/30 14:18:44;;;;;;;7.45;2.13;;;;;;;;;;5102032;28;20536;-66
2022/12/30 14:21:12;;;;;;;10.93;1.88;;;;;;;;;;5101001;28;20067;-66
2022/12/30 14:23:42;;;;;;;9.45;2.22;;;;;;;;;;5098042;28;20119;-66
2022/12/30 14:26:18;;;;;;;9.63;2.08;;;;;;;;;;5098141;28;20043;-66
2022/12/30 14:28:46;;;;;;;9.52;2.08;;;;;;;;;;5102060;28;20048;-66
2022/12/30 14:31:24;;;;;;;6.00;1.73;;;;;;;;;;5105223;28;20062;-66
2022/12/30 14:33:51;;;;;;;6.53;1.58;;;;;;;;;;5103263;28;20131;-66
2022/12/30 14:36:19;;;;;;;7.57;1.75;;;;;;;;;;5079171;28;20040;-66
2022/12/30 14:38:55;;;;;;;11.43;1.73;;;;;;;;;;5086572;28;20052;-66
2022/12/30 14:41:23;;;;;;;7.38;1.70;;;;;;;;;;5106846;28;21693;-67
2022/12/30 14:43:50;;;;;;;6.25;1.70;;;;;;;;;;5082819;28;20060;-66
2022/12/30 14:46:41;;;;;;;8.38;1.60;;;;;;;;;;5082354;28;20694;-66
2022/12/30 14:49:18;;;;;;;12.85;2.33;;;;;;;;;;5084040;28;20048;-66
2022/12/30 14:51:45;;;;;;;8.68;2.05;;;;;;;;;;5084878;28;20048;-66
2022/12/30 14:54:15;;;;;;;5.95;1.33;;;;;;;;;;5083044;28;20101;-66
2022/12/30 14:56:53;;;;;;;9.40;2.63;;;;;;;;;;5084172;28;20492;-66
2022/12/30 14:59:19;;;;;;;7.25;2.28;;;;;;;;;;5083602;28;20055;-66
2022/12/30 15:02:00;;;;;;;7.78;1.77;;;;;;;;;;5078186;28;20078;-66
2022/12/30 15:04:26;;;;;;;7.50;1.50;;;;;;;;;;5083996;28;20032;-66
2022/12/30 15:06:52;;;;;;;5.07;1.75;;;;;;;;;;5077464;28;20048;-66
2022/12/30 15:09:21;;;;;;;5.93;1.63;;;;;;;;;;5087851;28;20085;-66
2022/12/30 15:11:50;;;;;;;4.97;1.65;;;;;;;;;;5081414;28;20040;-66
2022/12/30 15:14:16;;;;;;;6.68;1.42;;;;;;;;;;5082638;28;20063;-66
2022/12/30 15:16:42;;;;;;;7.93;2.08;;;;;;;;;;5083881;28;20050;-66
2022/12/30 15:19:21;;;;;;;5.28;1.50;;;;;;;;;;5086958;28;20048;-66
2022/12/30 15:21:48;;;;;;;9.30;1.50;;;;;;;;;;5080300;28;20075;-66
2022/12/30 15:24:16;;;;;;;10.80;2.75;;;;;;;;;;5083859;28;20059;-66
2022/12/30 15:26:42;;;;;;;6.45;1.67;;;;;;;;;;5085700;28;20051;-66
2022/12/30 15:29:20;;;;;;;5.95;1.63;;;;;;;;;;5084583;28;20044;-66
2022/12/30 15:31:49;;;;;;;4.55;1.67;;;;;;;;;;5082232;28;20059;-65